createdAt,value
2022-12-31T00:00:08.980Z,32.33
2022-12-31T00:00:25.189Z,30.98
2022-12-31T00:00:58.858Z,37.78
2022-12-31T00:01:15.350Z,37.08
2022-12-31T00:01:28.523Z,36.08
2022-12-31T00:01:41.148Z,37.75
2022-12-31T00:01:53.782Z,37.38
2022-12-31T00:02:07.533Z,37.35
2022-12-31T00:02:20.321Z,35.58
2022-12-31T00:02:33.056Z,34.10
2022-12-31T00:02:45.987Z,31.85
2022-12-31T00:02:58.917Z,30.95
2022-12-31T00:03:11.791Z,30.90
2022-12-31T00:03:24.821Z,31.83
2022-12-31T00:03:39.164Z,33.75
2022-12-31T00:03:52.267Z,33.95
2022-12-31T00:04:05.266Z,31.63
2022-12-31T00:04:18.348Z,30.23
2022-12-31T00:04:30.942Z,31.80
2022-12-31T00:04:44.626Z,33.08
2022-12-31T00:04:57.221Z,32.90
2022-12-31T00:05:10.728Z,31.75
2022-12-31T00:05:24.147Z,32.88
2022-12-31T00:05:37.450Z,30.83
2022-12-31T00:05:50.113Z,31.95
2022-12-31T00:06:13.011Z,32.75
2022-12-31T00:06:28.029Z,35.35
2022-12-31T00:06:40.643Z,35.33
2022-12-31T00:06:53.275Z,32.97
2022-12-31T00:07:05.866Z,32.63
2022-12-31T00:07:19.458Z,32.53
2022-12-31T00:07:46.180Z,30.95
2022-12-31T00:07:59.007Z,33.00
2022-12-31T00:08:11.617Z,31.83
2022-12-31T00:08:24.311Z,31.85
2022-12-31T00:08:36.944Z,32.75
2022-12-31T00:08:51.511Z,32.20
2022-12-31T00:09:06.210Z,30.10
2022-12-31T00:09:18.833Z,30.38
2022-12-31T00:09:31.424Z,30.67
2022-12-31T00:09:44.005Z,29.83
2022-12-31T00:09:56.615Z,30.70
2022-12-31T00:10:10.831Z,30.95
2022-12-31T00:10:23.590Z,31.80
2022-12-31T00:10:41.498Z,32.92
2022-12-31T00:10:54.338Z,31.27
2022-12-31T00:11:06.941Z,30.77
2022-12-31T00:11:20.559Z,32.08
2022-12-31T00:11:35.602Z,33.08
2022-12-31T00:11:49.632Z,32.20
2022-12-31T00:12:02.193Z,32.67
2022-12-31T00:12:14.794Z,34.70
2022-12-31T00:12:27.347Z,35.50
2022-12-31T00:12:40.141Z,34.63
2022-12-31T00:12:52.764Z,31.27
2022-12-31T00:13:06.360Z,30.60
2022-12-31T00:13:18.926Z,29.45
2022-12-31T00:13:31.849Z,27.70
2022-12-31T00:13:46.575Z,28.92
2022-12-31T00:13:59.678Z,32.58
2022-12-31T00:14:12.422Z,33.75
2022-12-31T00:14:25.029Z,32.10
2022-12-31T00:14:38.644Z,31.38
2022-12-31T00:14:51.236Z,30.33
2022-12-31T00:15:04.106Z,29.70
2022-12-31T00:15:16.937Z,31.10
2022-12-31T00:15:29.489Z,30.45
2022-12-31T00:15:43.590Z,30.52
2022-12-31T00:15:57.175Z,32.55
2022-12-31T00:16:12.418Z,32.65
2022-12-31T00:16:27.296Z,33.47
2022-12-31T00:16:41.901Z,33.50
2022-12-31T00:16:54.560Z,31.13
2022-12-31T00:17:07.188Z,30.60
2022-12-31T00:17:20.770Z,30.65
2022-12-31T00:17:33.510Z,29.92
2022-12-31T00:17:46.394Z,31.02
2022-12-31T00:17:58.962Z,30.10
2022-12-31T00:18:11.945Z,30.30
2022-12-31T00:18:24.580Z,29.80
2022-12-31T00:18:38.018Z,31.77
2022-12-31T00:18:52.530Z,30.30
2022-12-31T00:19:07.845Z,26.55
2022-12-31T00:19:20.436Z,27.17
2022-12-31T00:19:32.995Z,28.77
2022-12-31T00:19:45.575Z,29.65
2022-12-31T00:19:58.168Z,29.60
2022-12-31T00:20:11.471Z,30.13
2022-12-31T00:20:24.075Z,29.50
2022-12-31T00:20:40.182Z,29.05
2022-12-31T00:20:52.767Z,29.88
2022-12-31T00:21:06.867Z,29.63
2022-12-31T00:21:20.052Z,27.17
2022-12-31T00:21:34.518Z,26.88
2022-12-31T00:21:47.122Z,28.92
2022-12-31T00:21:59.958Z,29.42
2022-12-31T00:22:13.521Z,28.02
2022-12-31T00:22:26.100Z,28.70
2022-12-31T00:22:38.710Z,28.73
2022-12-31T00:22:51.326Z,29.83
2022-12-31T00:23:03.953Z,30.45
2022-12-31T00:23:16.538Z,29.98
2022-12-31T00:23:29.125Z,27.90
2022-12-31T00:23:42.182Z,28.17
2022-12-31T00:23:55.878Z,27.77
2022-12-31T00:24:08.887Z,26.90
2022-12-31T00:24:21.466Z,27.90
2022-12-31T00:24:35.846Z,28.67
2022-12-31T00:24:48.483Z,29.45
2022-12-31T00:25:01.048Z,29.27
2022-12-31T00:25:13.704Z,27.70
2022-12-31T00:25:27.562Z,26.35
2022-12-31T00:25:40.145Z,27.00
2022-12-31T00:25:52.699Z,28.58
2022-12-31T00:26:07.260Z,29.55
2022-12-31T00:26:21.980Z,28.15
2022-12-31T00:26:36.541Z,27.77
2022-12-31T00:26:50.734Z,27.25
2022-12-31T00:27:03.487Z,27.58
2022-12-31T00:27:16.317Z,27.40
2022-12-31T00:27:30.479Z,28.10
2022-12-31T00:27:43.042Z,28.55
2022-12-31T00:27:56.828Z,28.45
2022-12-31T00:28:09.381Z,27.45
2022-12-31T00:28:22.052Z,27.00
2022-12-31T00:28:35.732Z,28.48
2022-12-31T00:28:49.152Z,28.38
2022-12-31T00:29:02.297Z,28.20
2022-12-31T00:29:15.967Z,28.33
2022-12-31T00:29:28.587Z,27.80
2022-12-31T00:29:41.150Z,27.48
2022-12-31T00:29:53.728Z,28.38
2022-12-31T00:30:07.505Z,28.40
2022-12-31T00:30:20.076Z,26.30
2022-12-31T00:30:33.885Z,26.88
2022-12-31T00:30:47.479Z,27.90
2022-12-31T00:31:05.921Z,27.08
2022-12-31T00:31:20.722Z,27.60
2022-12-31T00:31:35.770Z,29.73
2022-12-31T00:31:49.431Z,28.35
2022-12-31T00:32:02.030Z,25.77
2022-12-31T00:32:14.596Z,25.98
2022-12-31T00:32:28.351Z,26.83
2022-12-31T00:32:41.159Z,25.05
2022-12-31T00:32:53.766Z,24.17
2022-12-31T00:33:06.350Z,23.15
2022-12-31T00:33:19.894Z,23.58
2022-12-31T00:33:32.528Z,25.02
2022-12-31T00:33:45.268Z,26.73
2022-12-31T00:33:58.683Z,25.58
2022-12-31T00:34:11.212Z,24.23
2022-12-31T00:34:23.903Z,23.58
2022-12-31T00:34:36.441Z,25.63
2022-12-31T00:34:50.050Z,28.92
2022-12-31T00:35:02.632Z,28.63
2022-12-31T00:35:15.230Z,27.02
2022-12-31T00:35:27.796Z,25.08
2022-12-31T00:35:40.650Z,24.42
2022-12-31T00:35:53.190Z,24.83
2022-12-31T00:36:08.204Z,25.63
2022-12-31T00:36:24.399Z,25.08
2022-12-31T00:36:39.099Z,24.02
2022-12-31T00:36:52.965Z,23.25
2022-12-31T00:37:05.555Z,24.33
2022-12-31T00:37:18.170Z,25.25
2022-12-31T00:37:30.761Z,25.40
2022-12-31T00:37:43.345Z,23.75
2022-12-31T00:37:56.908Z,23.02
2022-12-31T00:38:09.561Z,24.60
2022-12-31T00:38:22.184Z,25.85
2022-12-31T00:38:35.353Z,25.50
2022-12-31T00:38:49.908Z,25.45
2022-12-31T00:39:05.045Z,26.65
2022-12-31T00:39:18.603Z,25.50
2022-12-31T00:39:31.213Z,24.98
2022-12-31T00:39:43.823Z,24.00
2022-12-31T00:39:56.745Z,23.67
2022-12-31T00:40:10.996Z,25.20
2022-12-31T00:40:23.567Z,27.60
2022-12-31T00:40:36.203Z,26.52
2022-12-31T00:40:49.816Z,22.98
2022-12-31T00:41:02.454Z,23.55
2022-12-31T00:41:17.033Z,25.00
2022-12-31T00:41:29.709Z,27.88
2022-12-31T00:41:44.084Z,28.17
2022-12-31T00:41:59.129Z,27.33
2022-12-31T00:42:11.721Z,26.90
2022-12-31T00:42:24.463Z,27.55
2022-12-31T00:42:37.057Z,27.88
2022-12-31T00:42:49.654Z,27.05
2022-12-31T00:43:03.246Z,26.65
2022-12-31T00:43:15.849Z,24.60
2022-12-31T00:43:28.431Z,25.88
2022-12-31T00:43:41.331Z,27.88
2022-12-31T00:43:54.923Z,27.70
2022-12-31T00:44:07.535Z,26.38
2022-12-31T00:44:21.602Z,26.63
2022-12-31T00:44:34.229Z,26.05
2022-12-31T00:44:46.845Z,24.63
2022-12-31T00:44:59.470Z,24.27
2022-12-31T00:45:12.140Z,24.35
2022-12-31T00:45:24.728Z,24.25
2022-12-31T00:45:37.328Z,23.55
2022-12-31T00:45:49.995Z,22.67
2022-12-31T00:46:05.067Z,23.10
2022-12-31T00:46:19.322Z,23.20
2022-12-31T00:46:32.033Z,25.17
2022-12-31T00:46:56.873Z,28.17
2022-12-31T00:47:09.480Z,28.13
2022-12-31T00:47:24.573Z,25.35
2022-12-31T00:47:37.172Z,23.48
2022-12-31T00:47:49.755Z,25.13
2022-12-31T00:48:02.337Z,25.33
2022-12-31T00:48:14.927Z,26.98
2022-12-31T00:48:28.118Z,25.02
2022-12-31T00:48:42.328Z,24.77
2022-12-31T00:48:55.195Z,24.10
2022-12-31T00:49:09.742Z,23.38
2022-12-31T00:49:22.304Z,24.42
2022-12-31T00:49:34.923Z,25.83
2022-12-31T00:49:47.556Z,26.17
2022-12-31T00:50:01.362Z,25.75
2022-12-31T00:50:13.994Z,24.80
2022-12-31T00:50:26.563Z,24.88
2022-12-31T00:50:39.178Z,25.27
2022-12-31T00:50:52.260Z,25.00
2022-12-31T00:51:07.490Z,22.85
2022-12-31T00:51:27.424Z,22.75
2022-12-31T00:51:40.619Z,24.13
2022-12-31T00:51:53.211Z,23.73
2022-12-31T00:52:06.012Z,24.17
2022-12-31T00:52:18.620Z,24.83
2022-12-31T00:52:31.229Z,25.65
2022-12-31T00:52:43.797Z,26.30
2022-12-31T00:52:56.377Z,25.85
2022-12-31T00:53:09.987Z,24.55
2022-12-31T00:53:23.739Z,23.23
2022-12-31T00:53:37.101Z,22.98
2022-12-31T00:53:50.066Z,23.58
2022-12-31T00:54:02.714Z,24.38
2022-12-31T00:54:15.410Z,25.00
2022-12-31T00:54:28.008Z,25.30
2022-12-31T00:54:41.676Z,24.80
2022-12-31T00:54:54.319Z,23.73
2022-12-31T00:55:08.200Z,22.58
2022-12-31T00:55:20.829Z,22.20
2022-12-31T00:55:33.464Z,21.25
2022-12-31T00:55:46.052Z,23.02
2022-12-31T00:56:02.395Z,23.25
2022-12-31T00:56:17.845Z,23.67
2022-12-31T00:56:31.408Z,24.17
2022-12-31T00:56:43.976Z,24.00
2022-12-31T00:56:57.955Z,23.83
2022-12-31T00:57:10.562Z,21.52
2022-12-31T00:57:23.152Z,22.35
2022-12-31T00:57:36.724Z,23.25
2022-12-31T00:57:49.616Z,24.77
2022-12-31T00:58:02.283Z,24.60
2022-12-31T00:58:15.252Z,23.92
2022-12-31T00:58:27.927Z,23.17
2022-12-31T00:58:41.545Z,23.00
2022-12-31T00:58:54.488Z,21.98
2022-12-31T00:59:08.191Z,22.27
2022-12-31T00:59:20.909Z,23.75
2022-12-31T00:59:33.503Z,25.42
2022-12-31T00:59:46.085Z,26.25
2022-12-31T00:59:58.698Z,24.52
2022-12-31T01:00:12.603Z,22.20
2022-12-31T01:00:26.182Z,22.17
2022-12-31T01:00:39.430Z,22.58
2022-12-31T01:00:52.037Z,24.35
2022-12-31T01:01:09.700Z,25.85
2022-12-31T01:01:24.397Z,23.15
2022-12-31T01:01:40.460Z,22.75
2022-12-31T01:01:53.253Z,25.08
2022-12-31T01:02:06.005Z,23.38
2022-12-31T01:02:19.068Z,23.02
2022-12-31T01:02:31.850Z,22.10
2022-12-31T01:02:44.741Z,21.58
2022-12-31T01:02:58.401Z,21.95
2022-12-31T01:03:11.170Z,21.92
2022-12-31T01:03:24.319Z,22.05
2022-12-31T01:03:36.948Z,21.70
2022-12-31T01:03:51.810Z,22.13
2022-12-31T01:04:06.638Z,24.05
2022-12-31T01:04:22.085Z,23.45
2022-12-31T01:04:34.757Z,21.33
2022-12-31T01:04:47.465Z,20.90
2022-12-31T01:05:00.099Z,21.98
2022-12-31T01:05:12.769Z,22.85
2022-12-31T01:05:26.726Z,21.80
2022-12-31T01:05:39.327Z,22.40
2022-12-31T01:05:52.129Z,23.15
2022-12-31T01:06:05.911Z,23.13
2022-12-31T01:06:18.992Z,23.02
2022-12-31T01:06:31.707Z,22.35
2022-12-31T01:06:44.875Z,23.35
2022-12-31T01:06:58.720Z,22.38
2022-12-31T01:07:11.354Z,22.35
2022-12-31T01:07:24.038Z,23.83
2022-12-31T01:07:37.781Z,22.77
2022-12-31T01:07:50.396Z,21.45
2022-12-31T01:08:03.596Z,23.15
2022-12-31T01:08:17.465Z,25.08
2022-12-31T01:08:30.057Z,24.58
2022-12-31T01:08:42.988Z,24.73
2022-12-31T01:08:55.815Z,24.73
2022-12-31T01:09:09.607Z,25.50
2022-12-31T01:09:22.406Z,24.85
2022-12-31T01:09:35.020Z,22.05
2022-12-31T01:09:47.623Z,22.80
2022-12-31T01:10:01.249Z,22.27
2022-12-31T01:10:34.388Z,23.38
2022-12-31T01:11:08.065Z,24.27
2022-12-31T01:11:22.615Z,23.05
2022-12-31T01:11:36.022Z,24.17
2022-12-31T01:11:51.051Z,24.73
2022-12-31T01:12:06.698Z,24.58
2022-12-31T01:12:19.504Z,23.52
2022-12-31T01:12:32.068Z,23.05
2022-12-31T01:12:44.650Z,24.55
2022-12-31T01:12:57.191Z,24.63
2022-12-31T01:13:10.191Z,23.70
2022-12-31T01:13:22.758Z,21.85
2022-12-31T01:13:36.351Z,21.38
2022-12-31T01:13:52.799Z,22.85
2022-12-31T01:14:08.808Z,22.60
2022-12-31T01:14:21.398Z,23.05
2022-12-31T01:14:34.041Z,25.35
2022-12-31T01:14:46.647Z,25.35
2022-12-31T01:15:00.197Z,23.58
2022-12-31T01:15:12.733Z,21.52
2022-12-31T01:15:25.436Z,21.05
2022-12-31T01:15:39.169Z,23.60
2022-12-31T01:15:52.230Z,25.00
2022-12-31T01:16:08.785Z,24.15
2022-12-31T01:16:22.966Z,22.70
2022-12-31T01:16:39.358Z,23.23
2022-12-31T01:16:54.199Z,22.60
2022-12-31T01:17:06.815Z,22.42
2022-12-31T01:17:19.457Z,23.27
2022-12-31T01:17:32.073Z,21.63
2022-12-31T01:17:44.637Z,21.05
2022-12-31T01:17:57.203Z,22.23
2022-12-31T01:18:09.979Z,21.60
2022-12-31T01:18:23.544Z,21.38
2022-12-31T01:18:36.220Z,21.65
2022-12-31T01:18:49.519Z,23.13
2022-12-31T01:19:05.647Z,23.50
2022-12-31T01:19:20.047Z,21.58
2022-12-31T01:19:33.637Z,21.88
2022-12-31T01:19:46.275Z,21.25
2022-12-31T01:19:59.167Z,21.92
2022-12-31T01:20:11.943Z,22.67
2022-12-31T01:20:24.546Z,22.85
2022-12-31T01:20:38.206Z,22.88
2022-12-31T01:20:50.809Z,21.27
2022-12-31T01:21:04.776Z,22.73
2022-12-31T01:21:19.046Z,23.85
2022-12-31T01:21:32.258Z,21.65
2022-12-31T01:21:45.901Z,20.80
2022-12-31T01:21:58.551Z,20.55
2022-12-31T01:22:11.179Z,21.40
2022-12-31T01:22:23.774Z,22.33
2022-12-31T01:22:36.400Z,23.08
2022-12-31T01:22:49.977Z,22.33
2022-12-31T01:23:02.595Z,22.05
2022-12-31T01:23:15.239Z,22.55
2022-12-31T01:23:27.839Z,22.67
2022-12-31T01:23:40.875Z,21.15
2022-12-31T01:23:53.529Z,20.13
2022-12-31T01:24:07.197Z,19.25
2022-12-31T01:24:21.292Z,21.35
2022-12-31T01:24:34.251Z,22.00
2022-12-31T01:24:46.853Z,21.17
2022-12-31T01:24:59.468Z,21.27
2022-12-31T01:25:12.202Z,21.08
2022-12-31T01:25:24.796Z,22.23
2022-12-31T01:25:39.261Z,22.45
2022-12-31T01:25:51.823Z,21.05
2022-12-31T01:26:06.397Z,20.30
2022-12-31T01:26:20.956Z,21.13
2022-12-31T01:26:33.552Z,21.27
2022-12-31T01:26:46.762Z,22.77
2022-12-31T01:26:59.349Z,21.45
2022-12-31T01:27:13.344Z,19.92
2022-12-31T01:27:25.966Z,20.95
2022-12-31T01:27:38.557Z,21.35
2022-12-31T01:27:52.151Z,20.33
2022-12-31T01:28:06.078Z,21.38
2022-12-31T01:28:18.702Z,22.77
2022-12-31T01:28:31.960Z,22.02
2022-12-31T01:28:44.665Z,22.50
2022-12-31T01:28:58.360Z,21.27
2022-12-31T01:29:11.767Z,21.15
2022-12-31T01:29:24.778Z,21.02
2022-12-31T01:29:37.397Z,20.85
2022-12-31T01:29:50.019Z,20.17
2022-12-31T01:30:03.633Z,20.65
2022-12-31T01:30:16.312Z,20.73
2022-12-31T01:30:28.920Z,21.27
2022-12-31T01:30:41.606Z,22.38
2022-12-31T01:30:54.391Z,23.17
2022-12-31T01:31:08.734Z,21.77
2022-12-31T01:31:24.259Z,20.60
2022-12-31T01:31:37.665Z,20.63
2022-12-31T01:31:50.377Z,21.48
2022-12-31T01:32:02.971Z,23.65
2022-12-31T01:32:15.620Z,23.88
2022-12-31T01:32:28.226Z,23.55
2022-12-31T01:32:40.847Z,24.17
2022-12-31T01:32:53.440Z,22.40
2022-12-31T01:33:06.146Z,21.02
2022-12-31T01:33:20.228Z,21.33
2022-12-31T01:33:33.521Z,22.70
2022-12-31T01:33:46.834Z,21.85
2022-12-31T01:33:59.466Z,20.70
2022-12-31T01:34:12.080Z,20.85
2022-12-31T01:34:24.681Z,20.95
2022-12-31T01:34:38.260Z,21.83
2022-12-31T01:34:50.855Z,23.20
2022-12-31T01:35:03.616Z,23.10
2022-12-31T01:35:16.263Z,23.27
2022-12-31T01:35:28.862Z,21.75
2022-12-31T01:35:41.459Z,21.80
2022-12-31T01:35:54.092Z,22.20
2022-12-31T01:36:11.036Z,21.75
2022-12-31T01:36:26.094Z,19.90
2022-12-31T01:36:40.044Z,20.63
2022-12-31T01:36:52.672Z,20.33
2022-12-31T01:37:05.271Z,20.33
2022-12-31T01:37:17.886Z,22.17
2022-12-31T01:37:31.573Z,23.13
2022-12-31T01:37:44.185Z,21.38
2022-12-31T01:37:56.751Z,21.35
2022-12-31T01:38:09.631Z,21.45
2022-12-31T01:38:22.220Z,20.17
2022-12-31T01:38:35.723Z,20.02
2022-12-31T01:38:48.635Z,20.40
2022-12-31T01:39:03.892Z,21.45
2022-12-31T01:39:16.570Z,20.90
2022-12-31T01:39:29.201Z,20.77
2022-12-31T01:39:41.783Z,21.45
2022-12-31T01:39:54.364Z,21.48
2022-12-31T01:40:08.736Z,19.65
2022-12-31T01:40:21.383Z,21.38
2022-12-31T01:40:37.230Z,22.30
2022-12-31T01:40:49.804Z,21.55
2022-12-31T01:41:03.240Z,22.23
2022-12-31T01:41:18.364Z,22.38
2022-12-31T01:41:33.321Z,21.38
2022-12-31T01:41:48.345Z,21.55
2022-12-31T01:42:00.911Z,20.50
2022-12-31T01:42:14.883Z,19.33
2022-12-31T01:42:27.796Z,19.60
2022-12-31T01:42:40.419Z,20.05
2022-12-31T01:42:56.452Z,19.67
2022-12-31T01:43:15.844Z,22.00
2022-12-31T01:43:44.023Z,22.33
2022-12-31T01:44:00.151Z,21.80
2022-12-31T01:44:51.140Z,19.65
2022-12-31T01:45:04.264Z,20.85
2022-12-31T01:45:16.898Z,20.88
2022-12-31T01:45:30.669Z,21.33
2022-12-31T01:45:45.408Z,21.35
2022-12-31T01:45:58.143Z,21.02
2022-12-31T01:46:12.752Z,21.30
2022-12-31T01:46:30.155Z,19.95
2022-12-31T01:46:48.353Z,20.35
2022-12-31T01:47:02.952Z,20.92
2022-12-31T01:47:20.365Z,20.33
2022-12-31T01:47:37.950Z,20.80
2022-12-31T01:47:53.712Z,21.08
2022-12-31T01:48:13.279Z,20.20
2022-12-31T01:48:28.463Z,19.23
2022-12-31T01:48:41.212Z,20.88
2022-12-31T01:48:57.825Z,21.38
2022-12-31T01:49:16.849Z,19.88
2022-12-31T01:49:37.610Z,18.17
2022-12-31T01:49:54.745Z,17.52
2022-12-31T01:50:12.160Z,20.35
2022-12-31T01:50:30.410Z,21.27
2022-12-31T01:50:43.430Z,23.08
2022-12-31T01:50:57.003Z,22.05
2022-12-31T01:51:10.478Z,18.58
2022-12-31T01:51:24.744Z,18.38
2022-12-31T01:51:38.272Z,20.20
2022-12-31T01:51:54.350Z,21.33
2022-12-31T01:52:11.756Z,21.20
2022-12-31T01:52:30.829Z,20.65
2022-12-31T01:52:48.307Z,20.67
2022-12-31T01:53:03.817Z,19.13
2022-12-31T01:53:18.242Z,19.70
2022-12-31T01:53:31.425Z,19.98
2022-12-31T01:53:44.339Z,20.42
2022-12-31T01:53:58.400Z,20.38
2022-12-31T01:54:15.784Z,20.10
2022-12-31T01:54:32.287Z,20.00
2022-12-31T01:54:48.833Z,21.48
2022-12-31T01:55:08.318Z,20.33
2022-12-31T01:55:25.621Z,18.95
2022-12-31T01:55:43.804Z,24.48
2022-12-31T01:56:00.172Z,24.30
2022-12-31T01:56:13.230Z,19.88
2022-12-31T01:56:26.393Z,18.40
2022-12-31T01:56:43.150Z,18.85
2022-12-31T01:56:56.947Z,20.42
2022-12-31T01:57:11.231Z,20.58
2022-12-31T01:57:27.783Z,20.50
2022-12-31T01:57:41.327Z,22.42
2022-12-31T01:57:57.161Z,22.85
2022-12-31T01:58:14.206Z,20.92
2022-12-31T01:58:30.363Z,20.17
2022-12-31T01:58:46.142Z,19.95
2022-12-31T01:59:00.584Z,19.98
2022-12-31T01:59:16.633Z,23.05
2022-12-31T01:59:30.381Z,21.58
2022-12-31T01:59:45.061Z,19.25
2022-12-31T01:59:58.979Z,19.92
2022-12-31T02:00:12.356Z,19.50
2022-12-31T02:00:26.495Z,20.13
2022-12-31T02:00:39.204Z,20.90
2022-12-31T02:00:53.299Z,20.60
2022-12-31T02:01:08.552Z,19.73
2022-12-31T02:01:25.829Z,20.25
2022-12-31T02:01:40.044Z,20.27
2022-12-31T02:01:53.044Z,21.33
2022-12-31T02:02:06.110Z,21.98
2022-12-31T02:02:19.002Z,20.80
2022-12-31T02:02:31.933Z,20.48
2022-12-31T02:02:44.705Z,20.60
2022-12-31T02:02:57.480Z,20.08
2022-12-31T02:03:10.676Z,18.85
2022-12-31T02:03:27.206Z,19.60
2022-12-31T02:03:40.437Z,21.50
2022-12-31T02:03:54.018Z,20.27
2022-12-31T02:04:09.800Z,19.38
2022-12-31T02:04:25.160Z,18.77
2022-12-31T02:04:37.858Z,21.50
2022-12-31T02:04:54.622Z,22.80
2022-12-31T02:05:18.275Z,20.45
2022-12-31T02:05:36.640Z,20.02
2022-12-31T02:05:55.169Z,18.88
2022-12-31T02:06:14.969Z,19.38
2022-12-31T02:06:32.579Z,19.80
2022-12-31T02:06:49.726Z,20.17
2022-12-31T02:07:05.770Z,20.48
2022-12-31T02:07:18.458Z,19.58
2022-12-31T02:07:31.328Z,20.08
2022-12-31T02:07:44.712Z,20.70
2022-12-31T02:07:57.796Z,22.02
2022-12-31T02:08:11.105Z,20.33
2022-12-31T02:08:23.845Z,17.35
2022-12-31T02:08:41.999Z,18.15
2022-12-31T02:08:57.291Z,22.00
2022-12-31T02:09:11.523Z,22.60
2022-12-31T02:09:24.186Z,20.55
2022-12-31T02:09:39.914Z,19.70
2022-12-31T02:09:53.846Z,18.98
2022-12-31T02:10:07.029Z,19.82
2022-12-31T02:10:19.892Z,20.35
2022-12-31T02:10:33.711Z,19.42
2022-12-31T02:10:46.342Z,19.50
2022-12-31T02:10:58.936Z,19.33
2022-12-31T02:11:36.438Z,19.13
2022-12-31T02:11:49.118Z,21.55
2022-12-31T02:12:02.840Z,19.88
2022-12-31T02:12:15.791Z,20.65
2022-12-31T02:12:29.789Z,21.55
2022-12-31T02:12:42.497Z,21.85
2022-12-31T02:12:55.267Z,21.40
2022-12-31T02:13:08.280Z,20.25
2022-12-31T02:13:21.082Z,20.90
2022-12-31T02:13:33.711Z,21.15
2022-12-31T02:13:47.335Z,19.55
2022-12-31T02:14:04.073Z,18.90
2022-12-31T02:14:21.068Z,19.30
2022-12-31T02:14:37.768Z,19.30
2022-12-31T02:14:53.327Z,21.02
2022-12-31T02:15:07.190Z,20.13
2022-12-31T02:15:28.442Z,18.83
2022-12-31T02:15:51.387Z,19.35
2022-12-31T02:16:14.834Z,19.48
2022-12-31T02:16:40.123Z,20.35
2022-12-31T02:17:01.158Z,21.48
2022-12-31T02:17:22.881Z,20.38
2022-12-31T02:17:44.667Z,18.45
2022-12-31T02:18:10.163Z,19.73
2022-12-31T02:18:31.930Z,20.20
2022-12-31T02:18:51.132Z,20.13
2022-12-31T02:19:24.752Z,21.42
2022-12-31T02:19:59.895Z,18.92
2022-12-31T02:20:40.595Z,19.85
2022-12-31T02:21:12.883Z,19.58
2022-12-31T02:21:45.134Z,20.05
2022-12-31T02:22:09.083Z,18.73
2022-12-31T02:22:33.852Z,18.38
2022-12-31T02:23:24.642Z,18.98
2022-12-31T02:24:17.876Z,21.02
2022-12-31T02:24:57.007Z,19.65
2022-12-31T02:25:24.646Z,19.38
2022-12-31T02:25:53.684Z,18.77
2022-12-31T02:26:31.214Z,19.30
2022-12-31T02:26:54.186Z,17.60
2022-12-31T02:27:11.804Z,19.10
2022-12-31T02:27:39.860Z,19.48
2022-12-31T02:28:03.258Z,20.98
2022-12-31T02:28:29.815Z,18.52
2022-12-31T02:29:04.869Z,18.17
2022-12-31T02:29:51.414Z,18.67
2022-12-31T02:30:14.134Z,21.50
2022-12-31T02:30:30.161Z,20.42
2022-12-31T02:30:50.448Z,20.92
2022-12-31T02:31:09.300Z,20.63
2022-12-31T02:31:26.841Z,20.33
2022-12-31T02:31:44.103Z,20.45
2022-12-31T02:32:01.727Z,19.58
2022-12-31T02:32:17.797Z,18.25
2022-12-31T02:32:39.168Z,20.25
2022-12-31T02:33:02.936Z,20.17
2022-12-31T02:33:23.849Z,19.48
2022-12-31T02:33:40.747Z,19.17
2022-12-31T02:33:58.430Z,21.35
2022-12-31T02:34:18.695Z,21.56
2022-12-31T02:34:35.376Z,21.75
2022-12-31T02:34:52.990Z,20.75
2022-12-31T02:35:10.995Z,19.00
2022-12-31T02:35:30.296Z,18.38
2022-12-31T02:35:48.945Z,19.45
2022-12-31T02:36:06.218Z,21.52
2022-12-31T02:36:22.182Z,20.33
2022-12-31T02:36:39.442Z,19.42
2022-12-31T02:36:55.206Z,19.08
2022-12-31T02:37:12.506Z,18.90
2022-12-31T02:37:29.106Z,19.95
2022-12-31T02:37:46.202Z,20.55
2022-12-31T02:38:05.368Z,19.83
2022-12-31T02:38:24.712Z,18.63
2022-12-31T02:38:41.922Z,20.90
2022-12-31T02:38:56.133Z,21.02
2022-12-31T02:39:10.807Z,21.65
2022-12-31T02:39:24.072Z,20.20
2022-12-31T02:39:38.500Z,18.38
2022-12-31T02:39:52.043Z,18.50
2022-12-31T02:40:08.121Z,19.85
2022-12-31T02:40:23.174Z,19.23
2022-12-31T02:40:38.396Z,18.10
2022-12-31T02:40:53.707Z,17.20
2022-12-31T02:41:06.310Z,17.88
2022-12-31T02:41:35.397Z,19.25
2022-12-31T02:41:51.111Z,20.77
2022-12-31T02:42:03.968Z,18.42
2022-12-31T02:42:16.615Z,18.45
2022-12-31T02:42:29.178Z,19.48
2022-12-31T02:42:41.964Z,19.38
2022-12-31T02:42:55.915Z,19.33
2022-12-31T02:43:08.577Z,18.33
2022-12-31T02:43:21.187Z,18.35
2022-12-31T02:43:34.052Z,17.83
2022-12-31T02:43:47.132Z,17.00
2022-12-31T02:43:59.739Z,17.20
2022-12-31T02:44:23.001Z,17.17
2022-12-31T02:44:37.349Z,17.38
2022-12-31T02:44:50.933Z,18.92
2022-12-31T02:45:03.918Z,19.38
2022-12-31T02:45:29.934Z,18.50
2022-12-31T02:45:47.240Z,20.65
2022-12-31T02:46:09.291Z,19.77
2022-12-31T02:46:31.140Z,19.30
2022-12-31T02:46:51.624Z,19.80
2022-12-31T02:47:19.652Z,21.08
2022-12-31T02:47:47.565Z,20.40
2022-12-31T02:48:14.886Z,18.95
2022-12-31T02:48:39.594Z,18.55
2022-12-31T02:48:58.605Z,17.23
2022-12-31T02:49:16.951Z,17.73
2022-12-31T02:49:39.189Z,17.13
2022-12-31T02:50:10.461Z,19.67
2022-12-31T02:50:36.150Z,21.10
2022-12-31T02:50:55.811Z,18.60
2022-12-31T02:51:26.633Z,16.98
2022-12-31T02:51:45.874Z,16.98
2022-12-31T02:52:05.750Z,18.58
2022-12-31T02:52:28.494Z,18.45
2022-12-31T02:52:50.759Z,15.82
2022-12-31T02:53:16.839Z,17.00
2022-12-31T02:53:48.782Z,17.17
2022-12-31T02:54:17.771Z,20.92
2022-12-31T02:54:40.923Z,17.90
2022-12-31T02:55:03.455Z,19.65
2022-12-31T02:55:23.124Z,17.52
2022-12-31T02:55:45.340Z,17.52
2022-12-31T02:56:04.113Z,17.75
2022-12-31T02:56:23.528Z,18.48
2022-12-31T02:56:41.547Z,18.98
2022-12-31T02:57:03.401Z,18.42
2022-12-31T02:57:24.882Z,16.10
2022-12-31T02:57:43.532Z,16.23
2022-12-31T02:58:05.284Z,17.27
2022-12-31T02:58:47.949Z,17.85
2022-12-31T02:59:25.112Z,18.02
2022-12-31T03:00:00.849Z,17.40
2022-12-31T03:00:35.126Z,16.86
2022-12-31T03:01:15.222Z,16.52
2022-12-31T03:01:52.138Z,16.85
2022-12-31T03:02:16.416Z,18.73
2022-12-31T03:02:34.894Z,19.50
2022-12-31T03:02:50.121Z,19.92
2022-12-31T03:03:04.346Z,19.35
2022-12-31T03:03:19.256Z,18.48
2022-12-31T03:03:33.049Z,17.95
2022-12-31T03:03:45.731Z,18.73
2022-12-31T03:04:22.924Z,18.13
2022-12-31T03:04:37.331Z,18.83
2022-12-31T03:04:52.606Z,17.92
2022-12-31T03:05:06.154Z,18.20
2022-12-31T03:05:22.863Z,18.50
2022-12-31T03:05:41.464Z,17.35
2022-12-31T03:05:55.699Z,17.83
2022-12-31T03:06:10.178Z,17.42
2022-12-31T03:06:23.013Z,17.90
2022-12-31T03:06:35.851Z,19.50
2022-12-31T03:06:49.184Z,19.27
2022-12-31T03:07:03.696Z,17.55
2022-12-31T03:07:22.111Z,16.73
2022-12-31T03:07:35.008Z,16.45
2022-12-31T03:07:48.034Z,16.73
2022-12-31T03:08:01.047Z,16.90
2022-12-31T03:08:21.439Z,16.15
2022-12-31T03:08:55.181Z,17.05
2022-12-31T03:09:13.654Z,18.17
2022-12-31T03:09:26.226Z,16.50
2022-12-31T03:09:39.328Z,16.75
2022-12-31T03:09:52.347Z,16.45
2022-12-31T03:10:06.728Z,18.27
2022-12-31T03:10:19.500Z,18.33
2022-12-31T03:10:32.087Z,18.90
2022-12-31T03:10:44.659Z,18.25
2022-12-31T03:10:57.282Z,17.65
2022-12-31T03:11:30.458Z,17.30
2022-12-31T03:12:01.695Z,19.33
2022-12-31T03:12:42.662Z,17.90
2022-12-31T03:12:55.623Z,17.05
2022-12-31T03:13:08.330Z,16.88
2022-12-31T03:13:21.927Z,16.30
2022-12-31T03:13:34.516Z,17.15
2022-12-31T03:13:47.092Z,18.92
2022-12-31T03:13:59.684Z,17.35
2022-12-31T03:14:12.392Z,16.48
2022-12-31T03:14:25.143Z,16.92
2022-12-31T03:14:37.738Z,18.50
2022-12-31T03:14:50.769Z,19.50
2022-12-31T03:15:06.822Z,18.17
2022-12-31T03:15:21.768Z,15.93
2022-12-31T03:15:34.897Z,15.68
2022-12-31T03:15:48.887Z,17.65
2022-12-31T03:16:01.568Z,18.20
2022-12-31T03:16:14.207Z,16.85
2022-12-31T03:16:26.885Z,15.32
2022-12-31T03:16:39.550Z,15.80
2022-12-31T03:16:53.136Z,14.88
2022-12-31T03:17:05.796Z,17.75
2022-12-31T03:17:18.432Z,19.08
2022-12-31T03:17:31.312Z,18.88
2022-12-31T03:17:43.931Z,17.88
2022-12-31T03:18:00.745Z,17.25
2022-12-31T03:18:15.295Z,17.10
2022-12-31T03:18:56.021Z,17.52
2022-12-31T03:19:35.656Z,16.27
2022-12-31T03:20:06.871Z,16.33
2022-12-31T03:20:39.082Z,15.40
2022-12-31T03:21:10.596Z,14.95
2022-12-31T03:21:41.520Z,16.20